Time,TemperatureF,DewpointF,PressureIn,WindDirection,WindDirectionDegrees,WindSpeedMPH,WindSpeedGustMPH,Humidity,HourlyPrecipIn,Conditions,Clouds,dailyrainin,SoftwareType,DateUTC
2013-02-08 00:03:00,40.0,36.1,29.95,WNW,293,0.4,0.4,86,0.00,,,0.00,WUHU216HW,2013-02-08 08:03:00,
2013-02-08 00:08:00,39.8,35.9,29.95,NW,315,0.0,0.4,86,0.00,,,0.00,WUHU216HW,2013-02-08 08:08:00,
2013-02-08 00:13:00,39.8,36.2,29.95,East,90,0.0,0.4,87,0.00,,,0.00,WUHU216HW,2013-02-08 08:13:00,
2013-02-08 00:19:00,39.6,36.0,29.95,North,0,1.1,1.1,87,0.00,,,0.00,WUHU216HW,2013-02-08 08:19:00,
2013-02-08 00:24:00,39.4,35.8,29.94,NE,45,0.4,1.1,87,0.00,,,0.00,WUHU216HW,2013-02-08 08:24:00,
2013-02-08 00:29:00,39.4,35.8,29.95,NNE,23,0.7,1.1,87,0.00,,,0.00,WUHU216HW,2013-02-08 08:29:00,
2013-02-08 00:34:00,39.2,35.6,29.94,North,0,0.2,1.1,87,0.00,,,0.00,WUHU216HW,2013-02-08 08:34:00,
2013-02-08 00:39:00,39.2,35.6,29.95,North,0,0.2,1.1,87,0.00,,,0.00,WUHU216HW,2013-02-08 08:39:00,
2013-02-08 00:44:00,39.1,35.5,29.94,North,0,0.0,0.2,87,0.00,,,0.00,WUHU216HW,2013-02-08 08:44:00,
2013-02-08 00:49:00,38.9,35.3,29.94,NNE,23,0.2,0.2,87,0.00,,,0.00,WUHU216HW,2013-02-08 08:49:00,
2013-02-08 00:54:00,38.7,35.1,29.94,ENE,68,0.2,0.7,87,0.00,,,0.00,WUHU216HW,2013-02-08 08:54:00,
2013-02-08 00:59:00,38.5,34.9,29.94,ENE,68,0.0,0.7,87,0.00,,,0.00,WUHU216HW,2013-02-08 08:59:00,
2013-02-08 01:04:00,38.3,34.7,29.94,ENE,68,0.0,0.2,87,0.00,,,0.00,WUHU216HW,2013-02-08 09:04:00,
2013-02-08 01:09:00,38.2,34.6,29.94,ENE,68,0.0,0.0,87,0.00,,,0.00,WUHU216HW,2013-02-08 09:09:00,
2013-02-08 01:14:00,38.0,34.4,29.93,ENE,68,0.0,0.0,87,0.00,,,0.00,WUHU216HW,2013-02-08 09:14:00,
2013-02-08 01:19:00,38.0,34.8,29.93,SE,135,0.2,0.4,88,0.00,,,0.00,WUHU216HW,2013-02-08 09:19:00,
2013-02-08 01:25:00,37.8,34.6,29.93,NE,45,0.9,1.1,88,0.00,,,0.00,WUHU216HW,2013-02-08 09:25:00,
2013-02-08 01:30:00,37.6,34.4,29.93,East,90,0.4,1.1,88,0.00,,,0.00,WUHU216HW,2013-02-08 09:30:00,
2013-02-08 01:35:00,37.3,33.7,29.93,ENE,68,0.4,0.9,87,0.00,,,0.00,WUHU216HW,2013-02-08 09:35:00,
2013-02-08 01:40:00,37.1,33.5,29.93,East,90,0.0,0.9,87,0.00,,,0.00,WUHU216HW,2013-02-08 09:40:00,
2013-02-08 01:45:00,37.1,33.5,29.93,East,90,0.0,0.7,87,0.00,,,0.00,WUHU216HW,2013-02-08 09:45:00,
2013-02-08 01:50:00,36.9,33.3,29.93,East,90,0.0,0.0,87,0.00,,,0.00,WUHU216HW,2013-02-08 09:50:00,
2013-02-08 01:55:00,36.7,33.5,29.93,ENE,68,0.2,0.2,88,0.00,,,0.00,WUHU216HW,2013-02-08 09:55:00,
2013-02-08 02:01:00,36.7,33.5,29.93,ENE,68,0.0,0.2,88,0.00,,,0.00,WUHU216HW,2013-02-08 10:01:00,
2013-02-08 02:06:00,36.7,33.5,29.93,ENE,68,0.0,0.0,88,0.00,,,0.00,WUHU216HW,2013-02-08 10:06:00,
2013-02-08 02:11:00,36.7,33.5,29.92,ENE,68,0.0,0.0,88,0.00,,,0.00,WUHU216HW,2013-02-08 10:11:00,
2013-02-08 02:16:00,36.7,33.5,29.92,ENE,68,0.0,0.0,88,0.00,,,0.00,WUHU216HW,2013-02-08 10:16:00,
2013-02-08 02:21:00,36.7,33.5,29.92,ENE,68,0.0,0.2,88,0.00,,,0.00,WUHU216HW,2013-02-08 10:21:00,
2013-02-08 02:27:00,36.5,33.3,29.92,ENE,68,0.2,0.2,88,0.00,,,0.00,WUHU216HW,2013-02-08 10:27:00,
2013-02-08 02:32:00,36.5,33.3,29.92,ENE,68,0.2,0.2,88,0.00,,,0.00,WUHU216HW,2013-02-08 10:32:00,
2013-02-08 02:37:00,36.4,33.1,29.92,East,90,0.0,0.4,88,0.00,,,0.00,WUHU216HW,2013-02-08 10:37:00,
2013-02-08 02:42:00,36.4,33.1,29.92,East,90,0.2,0.4,88,0.00,,,0.00,WUHU216HW,2013-02-08 10:42:00,
2013-02-08 02:47:00,36.2,33.0,29.91,ENE,68,0.0,0.4,88,0.00,,,0.00,WUHU216HW,2013-02-08 10:47:00,
2013-02-08 02:52:00,36.2,33.0,29.91,NE,45,0.0,0.4,88,0.00,,,0.00,WUHU216HW,2013-02-08 10:52:00,
2013-02-08 02:57:00,36.0,33.0,29.91,NE,45,0.0,0.2,89,0.00,,,0.00,WUHU216HW,2013-02-08 10:57:00,
2013-02-08 03:02:00,36.0,33.0,29.91,NE,45,0.0,0.0,89,0.00,,,0.00,WUHU216HW,2013-02-08 11:02:00,
2013-02-08 03:07:00,36.0,33.0,29.91,NE,45,0.0,0.0,89,0.00,,,0.00,WUHU216HW,2013-02-08 11:07:00,
2013-02-08 03:12:00,36.2,33.2,29.90,SE,135,0.2,0.2,89,0.00,,,0.00,WUHU216HW,2013-02-08 11:12:00,
2013-02-08 03:17:00,36.4,33.4,29.90,SSE,158,0.0,0.4,89,0.00,,,0.00,WUHU216HW,2013-02-08 11:17:00,
2013-02-08 03:22:00,36.4,33.4,29.90,SE,135,0.2,0.4,89,0.00,,,0.00,WUHU216HW,2013-02-08 11:22:00,
2013-02-08 03:28:00,36.4,33.4,29.90,ENE,68,0.2,0.4,89,0.00,,,0.00,WUHU216HW,2013-02-08 11:28:00,
2013-02-08 03:33:00,36.4,33.4,29.90,ENE,68,0.2,0.4,89,0.00,,,0.00,WUHU216HW,2013-02-08 11:33:00,
2013-02-08 03:38:00,36.4,33.4,29.90,ENE,68,0.0,0.2,89,0.00,,,0.00,WUHU216HW,2013-02-08 11:38:00,
2013-02-08 03:43:00,36.5,33.6,29.90,ENE,68,0.0,0.2,89,0.00,,,0.00,WUHU216HW,2013-02-08 11:43:00,
2013-02-08 03:48:00,36.7,33.8,29.90,ENE,68,0.0,0.0,89,0.00,,,0.00,WUHU216HW,2013-02-08 11:48:00,
2013-02-08 03:53:00,36.9,33.9,29.90,ENE,68,0.0,0.0,89,0.00,,,0.00,WUHU216HW,2013-02-08 11:53:00,
2013-02-08 03:58:00,37.1,34.1,29.90,SSW,203,0.0,0.9,89,0.00,,,0.00,WUHU216HW,2013-02-08 11:58:00,
2013-02-08 04:03:00,37.3,34.6,29.90,West,270,1.1,1.1,90,0.00,,,0.00,WUHU216HW,2013-02-08 12:03:00,
2013-02-08 04:08:00,37.4,35.0,29.90,NE,45,0.0,1.1,91,0.00,,,0.00,WUHU216HW,2013-02-08 12:08:00,
2013-02-08 04:13:00,37.6,35.2,29.90,NE,45,0.2,0.4,91,0.02,,,0.02,WUHU216HW,2013-02-08 12:13:00,
2013-02-08 04:18:00,37.8,35.1,29.90,East,90,0.0,0.4,90,0.02,,,0.02,WUHU216HW,2013-02-08 12:18:00,
2013-02-08 04:23:00,37.8,35.1,29.90,ENE,68,0.4,0.9,90,0.02,,,0.02,WUHU216HW,2013-02-08 12:23:00,
2013-02-08 04:29:00,37.8,35.1,29.90,ENE,68,0.0,0.9,90,0.02,,,0.02,WUHU216HW,2013-02-08 12:29:00,
2013-02-08 04:34:00,37.8,35.1,29.90,ENE,68,0.2,0.9,90,0.02,,,0.02,WUHU216HW,2013-02-08 12:34:00,
2013-02-08 04:39:00,37.8,35.1,29.90,ENE,68,0.4,0.4,90,0.02,,,0.02,WUHU216HW,2013-02-08 12:39:00,
2013-02-08 04:44:00,37.8,35.1,29.90,NNE,23,0.0,0.9,90,0.02,,,0.02,WUHU216HW,2013-02-08 12:44:00,
2013-02-08 04:49:00,38.0,35.3,29.90,NNE,23,0.0,0.9,90,0.02,,,0.02,WUHU216HW,2013-02-08 12:49:00,
2013-02-08 04:54:00,38.0,35.3,29.90,NNE,23,0.0,0.2,90,0.02,,,0.02,WUHU216HW,2013-02-08 12:54:00,
2013-02-08 04:59:00,38.2,35.5,29.90,SSW,203,0.4,0.7,90,0.02,,,0.02,WUHU216HW,2013-02-08 12:59:00,
2013-02-08 05:04:00,38.2,35.5,29.90,SSW,203,0.2,0.7,90,0.02,,,0.02,WUHU216HW,2013-02-08 13:04:00,
2013-02-08 05:09:00,38.2,35.5,29.90,SSW,203,0.0,0.2,90,0.00,,,0.02,WUHU216HW,2013-02-08 13:09:00,
2013-02-08 05:14:00,38.3,35.6,29.90,SSW,203,0.0,0.0,90,0.00,,,0.02,WUHU216HW,2013-02-08 13:14:00,
2013-02-08 05:19:00,38.3,35.6,29.90,SSW,203,0.0,0.0,90,0.00,,,0.02,WUHU216HW,2013-02-08 13:19:00,
2013-02-08 05:25:00,38.3,35.6,29.90,SSW,203,0.0,0.0,90,0.00,,,0.02,WUHU216HW,2013-02-08 13:25:00,
2013-02-08 05:30:00,38.5,35.8,29.91,WSW,248,0.0,0.2,90,0.00,,,0.02,WUHU216HW,2013-02-08 13:30:00,
2013-02-08 05:35:00,38.5,36.1,29.91,North,0,0.4,0.4,91,0.00,,,0.02,WUHU216HW,2013-02-08 13:35:00,
2013-02-08 05:40:00,38.5,36.1,29.91,NNE,23,0.2,0.4,91,0.00,,,0.02,WUHU216HW,2013-02-08 13:40:00,
2013-02-08 05:45:00,38.5,36.1,29.92,NNE,23,0.0,0.4,91,0.00,,,0.02,WUHU216HW,2013-02-08 13:45:00,
2013-02-08 05:50:00,38.5,36.1,29.92,NNE,23,0.2,0.4,91,0.00,,,0.02,WUHU216HW,2013-02-08 13:50:00,
2013-02-08 05:56:00,38.5,36.1,29.92,NNE,23,0.0,0.2,91,0.00,,,0.02,WUHU216HW,2013-02-08 13:56:00,
2013-02-08 06:01:00,38.5,36.1,29.92,NNE,23,0.0,0.0,91,0.00,,,0.02,WUHU216HW,2013-02-08 14:01:00,
2013-02-08 06:07:00,38.7,36.3,29.92,North,0,0.0,0.0,91,0.00,,,0.02,WUHU216HW,2013-02-08 14:07:00,
2013-02-08 06:12:00,38.7,36.3,29.92,NW,315,0.0,0.2,91,0.00,,,0.02,WUHU216HW,2013-02-08 14:12:00,
2013-02-08 06:17:00,38.9,36.5,29.92,NW,315,0.0,0.2,91,0.00,,,0.02,WUHU216HW,2013-02-08 14:17:00,
2013-02-08 06:22:00,38.9,36.5,29.92,NW,315,0.0,0.0,91,0.00,,,0.02,WUHU216HW,2013-02-08 14:22:00,
2013-02-08 06:27:00,39.1,36.9,29.92,NW,315,0.0,0.0,92,0.00,,,0.02,WUHU216HW,2013-02-08 14:27:00,
2013-02-08 06:32:00,39.1,36.9,29.92,NW,315,0.0,0.0,92,0.00,,,0.02,WUHU216HW,2013-02-08 14:32:00,
2013-02-08 06:37:00,39.1,36.9,29.92,NW,315,0.0,0.0,92,0.00,,,0.02,WUHU216HW,2013-02-08 14:37:00,
2013-02-08 06:42:00,39.1,36.9,29.93,NW,315,0.0,0.0,92,0.00,,,0.02,WUHU216HW,2013-02-08 14:42:00,
2013-02-08 06:49:00,39.2,37.1,29.93,NW,315,0.0,0.0,92,0.00,,,0.02,WUHU216HW,2013-02-08 14:49:00,
2013-02-08 06:54:00,39.2,37.1,29.93,NW,315,0.0,0.0,92,0.00,,,0.02,WUHU216HW,2013-02-08 14:54:00,
2013-02-08 06:59:00,39.2,37.1,29.92,NW,315,0.0,0.0,92,0.00,,,0.02,WUHU216HW,2013-02-08 14:59:00,
2013-02-08 07:04:00,39.2,37.1,29.93,NNE,23,0.4,0.7,92,0.00,,,0.02,WUHU216HW,2013-02-08 15:04:00,
2013-02-08 07:10:00,39.2,37.1,29.92,NNE,23,0.2,0.7,92,0.00,,,0.02,WUHU216HW,2013-02-08 15:10:00,
2013-02-08 07:15:00,39.2,37.1,29.92,NNE,23,0.0,0.2,92,0.00,,,0.02,WUHU216HW,2013-02-08 15:15:00,
2013-02-08 07:20:00,39.2,37.1,29.92,NNE,23,0.0,0.2,92,0.00,,,0.02,WUHU216HW,2013-02-08 15:20:00,
2013-02-08 07:25:00,39.2,37.1,29.93,NNE,23,0.0,0.0,92,0.00,,,0.02,WUHU216HW,2013-02-08 15:25:00,
2013-02-08 07:30:00,39.2,37.1,29.93,NNE,23,0.0,0.0,92,0.00,,,0.02,WUHU216HW,2013-02-08 15:30:00,
2013-02-08 07:35:00,39.2,37.1,29.93,NNE,23,0.0,0.0,92,0.00,,,0.02,WUHU216HW,2013-02-08 15:35:00,
2013-02-08 07:40:00,39.2,37.1,29.93,NE,45,0.0,0.4,92,0.00,,,0.02,WUHU216HW,2013-02-08 15:40:00,
2013-02-08 07:45:00,39.2,37.1,29.93,NE,45,0.4,0.4,92,0.00,,,0.02,WUHU216HW,2013-02-08 15:45:00,
2013-02-08 07:50:00,39.2,37.1,29.94,ENE,68,0.4,0.7,92,0.00,,,0.02,WUHU216HW,2013-02-08 15:50:00,
2013-02-08 07:55:00,39.6,37.4,29.94,East,90,0.7,1.1,92,0.00,,,0.02,WUHU216HW,2013-02-08 15:55:00,
2013-02-08 08:00:00,40.0,37.8,29.94,NNE,23,0.4,1.1,92,0.00,,,0.02,WUHU216HW,2013-02-08 16:00:00,
2013-02-08 08:05:00,40.1,38.0,29.94,NNE,23,0.0,0.4,92,0.00,,,0.02,WUHU216HW,2013-02-08 16:05:00,
2013-02-08 08:10:00,40.5,38.3,29.94,WNW,293,0.2,0.7,92,0.00,,,0.02,WUHU216HW,2013-02-08 16:10:00,
2013-02-08 08:15:00,40.9,38.7,29.94,NW,315,1.1,1.1,92,0.00,,,0.02,WUHU216HW,2013-02-08 16:15:00,
2013-02-08 08:21:00,41.8,39.6,29.95,WNW,293,1.3,1.8,92,0.00,,,0.02,WUHU216HW,2013-02-08 16:21:00,
2013-02-08 08:26:00,42.1,40.0,29.95,WNW,293,0.7,2.9,92,0.00,,,0.02,WUHU216HW,2013-02-08 16:26:00,
2013-02-08 08:31:00,42.1,39.7,29.95,NW,315,0.4,4.0,91,0.00,,,0.02,WUHU216HW,2013-02-08 16:31:00,
2013-02-08 08:36:00,42.5,40.1,29.95,West,270,1.1,4.0,91,0.00,,,0.02,WUHU216HW,2013-02-08 16:36:00,
2013-02-08 08:41:00,42.7,40.0,29.95,WNW,293,0.9,1.1,90,0.00,,,0.02,WUHU216HW,2013-02-08 16:41:00,
2013-02-08 08:47:00,42.8,40.1,29.95,WNW,293,5.4,5.4,90,0.00,,,0.02,WUHU216HW,2013-02-08 16:47:00,
2013-02-08 08:52:00,43.0,39.7,29.95,WNW,293,2.0,5.4,88,0.00,,,0.02,WUHU216HW,2013-02-08 16:52:00,
2013-02-08 08:57:00,43.0,39.4,29.95,WNW,293,1.8,4.0,87,0.00,,,0.02,WUHU216HW,2013-02-08 16:57:00,
2013-02-08 09:02:00,43.2,39.2,29.95,NNW,338,0.7,5.1,86,0.00,,,0.02,WUHU216HW,2013-02-08 17:02:00,
2013-02-08 09:08:00,43.6,39.6,29.95,NNW,338,0.2,5.1,86,0.00,,,0.02,WUHU216HW,2013-02-08 17:08:00,
2013-02-08 09:13:00,43.7,39.8,29.95,WNW,293,1.3,1.3,86,0.00,,,0.02,WUHU216HW,2013-02-08 17:13:00,
2013-02-08 09:18:00,43.9,39.7,29.95,North,0,0.7,1.8,85,0.00,,,0.02,WUHU216HW,2013-02-08 17:18:00,
2013-02-08 09:23:00,43.9,39.7,29.95,North,0,2.5,2.5,85,0.00,,,0.02,WUHU216HW,2013-02-08 17:23:00,
2013-02-08 09:28:00,43.7,38.9,29.95,North,0,0.7,3.4,83,0.00,,,0.02,WUHU216HW,2013-02-08 17:28:00,
2013-02-08 09:33:00,43.7,38.6,29.95,NW,315,0.9,3.4,82,0.00,,,0.02,WUHU216HW,2013-02-08 17:33:00,
2013-02-08 09:38:00,43.6,38.4,29.96,WNW,293,0.7,1.3,82,0.00,,,0.02,WUHU216HW,2013-02-08 17:38:00,
2013-02-08 09:43:00,43.6,38.4,29.96,WNW,293,0.2,1.3,82,0.00,,,0.02,WUHU216HW,2013-02-08 17:43:00,
2013-02-08 09:48:00,43.6,38.7,29.96,WNW,293,0.7,2.7,83,0.00,,,0.02,WUHU216HW,2013-02-08 17:48:00,
2013-02-08 09:53:00,43.6,38.4,29.96,NNW,338,0.4,2.7,82,0.00,,,0.02,WUHU216HW,2013-02-08 17:53:00,
2013-02-08 09:58:00,43.7,38.6,29.96,WNW,293,4.7,4.7,82,0.00,,,0.02,WUHU216HW,2013-02-08 17:58:00,
2013-02-08 10:04:00,44.1,38.6,29.96,WNW,293,0.9,5.8,81,0.00,,,0.02,WUHU216HW,2013-02-08 18:04:00,
2013-02-08 10:09:00,44.3,38.8,29.96,NW,315,2.2,2.5,81,0.00,,,0.02,WUHU216HW,2013-02-08 18:09:00,
2013-02-08 10:13:00,44.3,38.5,29.97,WSW,248,1.6,3.4,80,0.00,,,0.02,WUHU216HW,2013-02-08 18:13:00,
2013-02-08 10:19:00,44.5,39.0,29.97,WNW,293,2.5,6.9,81,0.00,,,0.02,WUHU216HW,2013-02-08 18:19:00,
2013-02-08 10:24:00,44.3,38.8,29.97,WNW,293,0.2,6.9,81,0.00,,,0.02,WUHU216HW,2013-02-08 18:24:00,
2013-02-08 10:29:00,44.3,38.8,29.97,West,270,1.8,3.6,81,0.00,,,0.02,WUHU216HW,2013-02-08 18:29:00,
2013-02-08 10:34:00,44.1,38.6,29.97,West,270,0.7,4.5,81,0.00,,,0.02,WUHU216HW,2013-02-08 18:34:00,
2013-02-08 10:39:00,44.1,38.6,29.97,North,0,0.4,4.5,81,0.00,,,0.02,WUHU216HW,2013-02-08 18:39:00,
2013-02-08 10:44:00,43.9,38.4,29.97,ESE,113,1.3,2.5,81,0.00,,,0.02,WUHU216HW,2013-02-08 18:44:00,
2013-02-08 10:49:00,44.1,38.6,29.97,WNW,293,2.5,3.1,81,0.00,,,0.02,WUHU216HW,2013-02-08 18:49:00,
2013-02-08 10:54:00,44.3,38.2,29.97,West,270,0.4,4.3,79,0.00,,,0.02,WUHU216HW,2013-02-08 18:54:00,
2013-02-08 10:59:00,44.5,38.3,29.97,WNW,293,3.8,4.3,79,0.00,,,0.02,WUHU216HW,2013-02-08 18:59:00,
2013-02-08 11:04:00,44.6,38.5,29.97,NNW,338,1.6,3.8,79,0.00,,,0.02,WUHU216HW,2013-02-08 19:04:00,
2013-02-08 11:09:00,44.8,38.3,29.97,NNE,23,6.0,6.0,78,0.00,,,0.02,WUHU216HW,2013-02-08 19:09:00,
2013-02-08 11:14:00,45.0,38.5,29.97,North,0,1.8,6.0,78,0.00,,,0.02,WUHU216HW,2013-02-08 19:14:00,
2013-02-08 11:19:00,45.4,38.6,29.96,NNE,23,3.1,3.1,77,0.00,,,0.02,WUHU216HW,2013-02-08 19:19:00,
2013-02-08 11:24:00,45.5,38.8,29.96,NNW,338,4.3,4.3,77,0.00,,,0.02,WUHU216HW,2013-02-08 19:24:00,
2013-02-08 11:29:00,45.7,39.0,29.96,NNW,338,0.4,7.4,77,0.00,,,0.02,WUHU216HW,2013-02-08 19:29:00,
2013-02-08 11:35:00,46.1,39.3,29.96,North,0,1.1,7.4,77,0.00,,,0.02,WUHU216HW,2013-02-08 19:35:00,
2013-02-08 11:40:00,47.2,39.6,29.96,WNW,293,1.1,5.4,75,0.02,,,0.04,WUHU216HW,2013-02-08 19:40:00,
2013-02-08 11:45:00,47.9,40.0,29.96,WNW,293,1.8,5.6,74,0.02,,,0.04,WUHU216HW,2013-02-08 19:45:00,
2013-02-08 11:50:00,48.6,40.0,29.96,North,0,1.6,5.6,72,0.02,,,0.04,WUHU216HW,2013-02-08 19:50:00,
2013-02-08 11:55:00,49.0,39.6,29.95,WNW,293,5.1,5.1,70,0.02,,,0.04,WUHU216HW,2013-02-08 19:55:00,
2013-02-08 12:00:00,49.3,40.3,29.95,NNW,338,4.0,5.1,71,0.02,,,0.04,WUHU216HW,2013-02-08 20:00:00,
2013-02-08 12:05:00,50.0,40.7,29.95,NW,315,0.9,5.6,70,0.02,,,0.04,WUHU216HW,2013-02-08 20:05:00,
2013-02-08 12:10:00,50.9,42.0,29.95,WNW,293,4.7,5.6,71,0.02,,,0.04,WUHU216HW,2013-02-08 20:10:00,
2013-02-08 12:15:00,51.3,40.7,29.95,West,270,3.8,6.3,67,0.02,,,0.04,WUHU216HW,2013-02-08 20:15:00,
2013-02-08 12:20:00,51.7,40.7,29.94,NW,315,5.8,6.3,66,0.02,,,0.04,WUHU216HW,2013-02-08 20:20:00,
2013-02-08 12:25:00,51.5,40.1,29.94,NNW,338,3.1,7.2,65,0.02,,,0.04,WUHU216HW,2013-02-08 20:25:00,
2013-02-08 12:30:00,51.7,40.7,29.94,WNW,293,1.1,7.2,66,0.02,,,0.04,WUHU216HW,2013-02-08 20:30:00,
2013-02-08 12:35:00,51.8,40.0,29.94,West,270,3.4,5.4,64,0.00,,,0.04,WUHU216HW,2013-02-08 20:35:00,
2013-02-08 12:40:00,51.7,39.9,29.94,NW,315,3.4,5.4,64,0.00,,,0.04,WUHU216HW,2013-02-08 20:40:00,
2013-02-08 12:45:00,51.5,39.7,29.94,WSW,248,4.3,4.7,64,0.00,,,0.04,WUHU216HW,2013-02-08 20:45:00,
2013-02-08 12:51:00,50.9,39.2,29.93,NNE,23,1.8,6.9,64,0.00,,,0.04,WUHU216HW,2013-02-08 20:51:00,
2013-02-08 12:56:00,50.4,38.6,29.93,West,270,2.9,6.9,64,0.00,,,0.04,WUHU216HW,2013-02-08 20:56:00,
2013-02-08 13:01:00,50.4,38.6,29.93,NW,315,0.4,3.1,64,0.00,,,0.04,WUHU216HW,2013-02-08 21:01:00,
2013-02-08 13:06:00,50.8,39.0,29.93,WNW,293,4.0,4.5,64,0.00,,,0.04,WUHU216HW,2013-02-08 21:06:00,
2013-02-08 13:11:00,51.1,39.3,29.93,SW,225,0.4,4.5,64,0.00,,,0.04,WUHU216HW,2013-02-08 21:11:00,
2013-02-08 13:16:00,51.3,39.5,29.93,NW,315,4.5,4.5,64,0.00,,,0.04,WUHU216HW,2013-02-08 21:16:00,
2013-02-08 13:21:00,51.3,39.5,29.92,West,270,2.5,4.5,64,0.00,,,0.04,WUHU216HW,2013-02-08 21:21:00,
2013-02-08 13:27:00,51.5,39.2,29.92,NW,315,6.5,6.5,63,0.00,,,0.04,WUHU216HW,2013-02-08 21:27:00,
2013-02-08 13:32:00,51.8,39.2,29.92,West,270,2.5,6.5,62,0.00,,,0.04,WUHU216HW,2013-02-08 21:32:00,
2013-02-08 13:37:00,52.2,39.5,29.92,NW,315,4.3,5.4,62,0.00,,,0.04,WUHU216HW,2013-02-08 21:37:00,
2013-02-08 13:42:00,52.6,39.9,29.92,NNE,23,2.7,4.3,62,0.00,,,0.04,WUHU216HW,2013-02-08 21:42:00,
2013-02-08 13:47:00,52.9,39.0,29.92,WNW,293,2.2,4.0,59,0.00,,,0.04,WUHU216HW,2013-02-08 21:47:00,
2013-02-08 13:52:00,53.1,39.6,29.92,West,270,1.1,6.0,60,0.00,,,0.04,WUHU216HW,2013-02-08 21:52:00,
2013-02-08 13:57:00,53.5,39.5,29.92,West,270,6.9,6.9,59,0.00,,,0.04,WUHU216HW,2013-02-08 21:57:00,
2013-02-08 14:02:00,53.8,38.9,29.91,NNW,338,1.1,6.9,57,0.00,,,0.04,WUHU216HW,2013-02-08 22:02:00,
2013-02-08 14:07:00,54.2,38.3,29.91,NW,315,6.3,6.3,55,0.00,,,0.04,WUHU216HW,2013-02-08 22:07:00,
2013-02-08 14:12:00,54.4,38.4,29.91,SSW,203,4.0,6.3,55,0.00,,,0.04,WUHU216HW,2013-02-08 22:12:00,
2013-02-08 14:17:00,54.7,38.8,29.91,NW,315,1.8,4.7,55,0.00,,,0.04,WUHU216HW,2013-02-08 22:17:00,
2013-02-08 14:23:00,54.9,38.4,29.91,NW,315,5.1,5.1,54,0.00,,,0.04,WUHU216HW,2013-02-08 22:23:00,
2013-02-08 14:28:00,54.7,37.8,29.91,NNW,338,0.7,5.4,53,0.00,,,0.04,WUHU216HW,2013-02-08 22:28:00,
2013-02-08 14:33:00,54.2,37.8,29.91,WNW,293,2.2,5.4,54,0.00,,,0.04,WUHU216HW,2013-02-08 22:33:00,
2013-02-08 14:38:00,53.8,37.5,29.91,West,270,2.5,6.9,54,0.00,,,0.04,WUHU216HW,2013-02-08 22:38:00,
2013-02-08 14:43:00,53.6,37.4,29.91,NNW,338,0.2,6.9,54,0.00,,,0.04,WUHU216HW,2013-02-08 22:43:00,
2013-02-08 14:49:00,52.9,39.0,29.91,WSW,248,5.8,6.3,59,0.00,,,0.04,WUHU216HW,2013-02-08 22:49:00,
2013-02-08 14:54:00,52.7,40.1,29.90,WNW,293,1.8,6.5,62,0.00,,,0.04,WUHU216HW,2013-02-08 22:54:00,
2013-02-08 14:59:00,52.7,40.4,29.90,WSW,248,4.7,6.5,63,0.00,,,0.04,WUHU216HW,2013-02-08 22:59:00,
2013-02-08 15:04:00,53.3,40.6,29.90,WSW,248,4.7,4.7,62,0.00,,,0.04,WUHU216HW,2013-02-08 23:04:00,
2013-02-08 15:09:00,53.6,41.0,29.90,West,270,3.6,6.7,62,0.00,,,0.04,WUHU216HW,2013-02-08 23:09:00,
2013-02-08 15:14:00,53.6,40.5,29.90,West,270,4.0,6.7,61,0.00,,,0.04,WUHU216HW,2013-02-08 23:14:00,
2013-02-08 15:20:00,53.5,40.3,29.90,WSW,248,1.6,7.6,61,0.00,,,0.04,WUHU216HW,2013-02-08 23:20:00,
2013-02-08 15:25:00,53.5,39.5,29.90,WSW,248,4.5,7.6,59,0.00,,,0.04,WUHU216HW,2013-02-08 23:25:00,
2013-02-08 15:30:00,53.3,40.1,29.90,WSW,248,3.4,4.9,61,0.00,,,0.04,WUHU216HW,2013-02-08 23:30:00,
2013-02-08 15:35:00,53.1,40.0,29.90,WNW,293,4.7,4.7,61,0.00,,,0.04,WUHU216HW,2013-02-08 23:35:00,
2013-02-08 15:40:00,52.7,39.6,29.90,SW,225,3.4,4.7,61,0.00,,,0.04,WUHU216HW,2013-02-08 23:40:00,
2013-02-08 15:45:00,52.7,40.1,29.90,WNW,293,0.4,6.0,62,0.00,,,0.04,WUHU216HW,2013-02-08 23:45:00,
2013-02-08 15:50:00,52.9,40.2,29.90,WSW,248,5.1,6.0,62,0.00,,,0.04,WUHU216HW,2013-02-08 23:50:00,
2013-02-08 15:55:00,53.5,40.3,29.90,WSW,248,4.0,8.9,61,0.00,,,0.04,WUHU216HW,2013-02-08 23:55:00,
2013-02-08 16:00:00,53.5,40.3,29.90,WSW,248,8.1,11.4,61,0.00,,,0.04,WUHU216HW,2013-02-09 00:00:00,
2013-02-08 16:06:00,53.1,40.4,29.90,West,270,6.7,11.4,62,0.00,,,0.04,WUHU216HW,2013-02-09 00:06:00,
2013-02-08 16:11:00,52.9,40.2,29.90,West,270,6.3,8.7,62,0.00,,,0.04,WUHU216HW,2013-02-09 00:11:00,
2013-02-08 16:16:00,52.6,40.3,29.90,West,270,3.4,10.3,63,0.00,,,0.04,WUHU216HW,2013-02-09 00:16:00,
2013-02-08 16:21:00,52.2,40.3,29.90,WNW,293,6.0,10.3,64,0.00,,,0.04,WUHU216HW,2013-02-09 00:21:00,
2013-02-08 16:26:00,51.5,39.7,29.91,WSW,248,3.1,8.3,64,0.00,,,0.04,WUHU216HW,2013-02-09 00:26:00,
2013-02-08 16:31:00,51.3,39.5,29.90,West,270,6.3,8.3,64,0.00,,,0.04,WUHU216HW,2013-02-09 00:31:00,
2013-02-08 16:36:00,50.9,39.2,29.90,West,270,3.4,7.6,64,0.00,,,0.04,WUHU216HW,2013-02-09 00:36:00,
2013-02-08 16:41:00,50.8,39.4,29.90,West,270,2.2,7.6,65,0.00,,,0.04,WUHU216HW,2013-02-09 00:41:00,
2013-02-08 16:46:00,50.6,39.3,29.91,SE,135,1.8,6.0,65,0.00,,,0.04,WUHU216HW,2013-02-09 00:46:00,
2013-02-08 16:51:00,50.6,39.3,29.91,WSW,248,3.8,6.0,65,0.00,,,0.04,WUHU216HW,2013-02-09 00:51:00,
2013-02-08 16:56:00,50.4,38.6,29.91,West,270,3.4,5.4,64,0.00,,,0.04,WUHU216HW,2013-02-09 00:56:00,
2013-02-08 17:01:00,50.0,38.4,29.91,WSW,248,2.0,5.4,64,0.00,,,0.04,WUHU216HW,2013-02-09 01:01:00,
2013-02-08 17:07:00,49.9,38.5,29.91,WSW,248,4.0,4.5,65,0.00,,,0.04,WUHU216HW,2013-02-09 01:07:00,
2013-02-08 17:12:00,49.9,38.5,29.91,West,270,3.4,4.5,65,0.00,,,0.04,WUHU216HW,2013-02-09 01:12:00,
2013-02-08 17:17:00,49.7,38.3,29.91,West,270,1.1,4.5,65,0.00,,,0.04,WUHU216HW,2013-02-09 01:17:00,
2013-02-08 17:22:00,49.3,38.4,29.91,West,270,0.4,4.5,66,0.00,,,0.04,WUHU216HW,2013-02-09 01:22:00,
2013-02-08 17:27:00,49.3,38.4,29.91,WSW,248,2.0,2.5,66,0.00,,,0.04,WUHU216HW,2013-02-09 01:27:00,
2013-02-08 17:32:00,49.1,38.6,29.91,WNW,293,3.1,3.1,67,0.00,,,0.04,WUHU216HW,2013-02-09 01:32:00,
2013-02-08 17:37:00,49.0,38.4,29.91,WNW,293,0.4,3.1,67,0.00,,,0.04,WUHU216HW,2013-02-09 01:37:00,
2013-02-08 17:42:00,48.6,38.1,29.91,WSW,248,0.0,2.5,67,0.00,,,0.04,WUHU216HW,2013-02-09 01:42:00,
2013-02-08 17:47:00,48.4,38.4,29.92,WSW,248,0.7,2.2,68,0.00,,,0.04,WUHU216HW,2013-02-09 01:47:00,
2013-02-08 17:52:00,48.1,38.0,29.91,North,0,0.4,0.7,68,0.00,,,0.04,WUHU216HW,2013-02-09 01:52:00,
2013-02-08 17:57:00,47.9,37.8,29.91,North,0,0.0,0.4,68,0.00,,,0.04,WUHU216HW,2013-02-09 01:57:00,
2013-02-08 18:03:00,47.3,37.7,29.91,NNE,23,0.0,0.7,69,0.00,,,0.04,WUHU216HW,2013-02-09 02:03:00,
2013-02-08 18:09:00,47.0,37.7,29.91,East,90,0.9,1.1,70,0.00,,,0.04,WUHU216HW,2013-02-09 02:09:00,
2013-02-08 18:14:00,46.6,37.8,29.91,NNE,23,0.4,1.1,71,0.00,,,0.04,WUHU216HW,2013-02-09 02:14:00,
2013-02-08 18:19:00,46.4,38.0,29.92,SE,135,0.0,0.4,72,0.00,,,0.04,WUHU216HW,2013-02-09 02:19:00,
2013-02-08 18:24:00,46.3,37.8,29.91,East,90,0.4,1.8,72,0.00,,,0.04,WUHU216HW,2013-02-09 02:24:00,
2013-02-08 18:29:00,45.9,37.5,29.92,NE,45,0.7,1.8,72,0.00,,,0.04,WUHU216HW,2013-02-09 02:29:00,
2013-02-08 18:34:00,45.5,37.4,29.92,NNE,23,0.4,1.1,73,0.00,,,0.04,WUHU216HW,2013-02-09 02:34:00,
2013-02-08 18:39:00,45.2,37.0,29.92,NNE,23,0.4,1.1,73,0.00,,,0.04,WUHU216HW,2013-02-09 02:39:00,
2013-02-08 18:44:00,45.0,36.8,29.92,NNE,23,0.0,0.4,73,0.00,,,0.04,WUHU216HW,2013-02-09 02:44:00,
2013-02-08 18:49:00,44.6,36.8,29.93,NE,45,0.4,0.4,74,0.00,,,0.04,WUHU216HW,2013-02-09 02:49:00,
2013-02-08 18:54:00,44.3,36.5,29.93,ENE,68,0.0,0.4,74,0.00,,,0.04,WUHU216HW,2013-02-09 02:54:00,
2013-02-08 18:59:00,43.9,36.2,29.93,ENE,68,0.4,0.4,74,0.00,,,0.04,WUHU216HW,2013-02-09 02:59:00,
2013-02-08 19:04:00,43.7,36.0,29.93,ENE,68,0.0,0.4,74,0.00,,,0.04,WUHU216HW,2013-02-09 03:04:00,
2013-02-08 19:09:00,43.4,35.6,29.93,ENE,68,0.0,0.2,74,0.00,,,0.04,WUHU216HW,2013-02-09 03:09:00,
2013-02-08 19:15:00,43.0,35.7,29.93,East,90,0.4,0.4,75,0.00,,,0.04,WUHU216HW,2013-02-09 03:15:00,
2013-02-08 19:20:00,42.8,35.5,29.93,East,90,0.0,0.4,75,0.00,,,0.04,WUHU216HW,2013-02-09 03:20:00,
2013-02-08 19:25:00,42.5,35.5,29.93,East,90,0.0,0.4,76,0.00,,,0.04,WUHU216HW,2013-02-09 03:25:00,
2013-02-08 19:30:00,42.1,35.1,29.93,ENE,68,0.7,0.7,76,0.00,,,0.04,WUHU216HW,2013-02-09 03:30:00,
2013-02-08 19:35:00,41.9,35.2,29.93,NE,45,0.2,0.7,77,0.00,,,0.04,WUHU216HW,2013-02-09 03:35:00,
2013-02-08 19:40:00,41.6,34.8,29.93,NE,45,0.0,0.7,77,0.00,,,0.04,WUHU216HW,2013-02-09 03:40:00,
2013-02-08 19:45:00,41.4,34.7,29.93,NE,45,0.0,0.7,77,0.00,,,0.04,WUHU216HW,2013-02-09 03:45:00,
2013-02-08 19:50:00,41.2,34.8,29.93,NE,45,0.4,0.4,78,0.00,,,0.04,WUHU216HW,2013-02-09 03:50:00,
2013-02-08 19:55:00,41.0,34.7,29.93,NE,45,0.0,0.4,78,0.00,,,0.04,WUHU216HW,2013-02-09 03:55:00,
2013-02-08 20:00:00,40.9,34.5,29.93,NE,45,0.0,0.4,78,0.00,,,0.04,WUHU216HW,2013-02-09 04:00:00,
2013-02-08 20:05:00,40.7,34.7,29.93,WNW,293,0.0,0.4,79,0.00,,,0.04,WUHU216HW,2013-02-09 04:05:00,
2013-02-08 20:10:00,40.3,34.3,29.93,WNW,293,0.0,0.4,79,0.00,,,0.04,WUHU216HW,2013-02-09 04:10:00,
2013-02-08 20:15:00,40.3,34.7,29.93,WNW,293,0.0,0.4,80,0.00,,,0.04,WUHU216HW,2013-02-09 04:15:00,
2013-02-08 20:20:00,40.1,34.5,29.93,West,270,0.2,0.4,80,0.00,,,0.04,WUHU216HW,2013-02-09 04:20:00,
2013-02-08 20:26:00,40.1,34.7,29.93,East,90,0.0,0.4,81,0.00,,,0.04,WUHU216HW,2013-02-09 04:26:00,
2013-02-08 20:31:00,40.0,34.3,29.93,ESE,113,0.0,0.2,80,0.00,,,0.04,WUHU216HW,2013-02-09 04:31:00,
2013-02-08 20:36:00,40.0,34.3,29.93,ESE,113,0.0,0.2,80,0.00,,,0.04,WUHU216HW,2013-02-09 04:36:00,
2013-02-08 20:41:00,39.8,34.1,29.93,ESE,113,0.0,0.2,80,0.00,,,0.04,WUHU216HW,2013-02-09 04:41:00,
2013-02-08 20:46:00,39.4,33.9,29.93,East,90,0.4,0.4,80,0.00,,,0.04,WUHU216HW,2013-02-09 04:46:00,
2013-02-08 20:51:00,39.2,33.9,29.93,NE,45,0.0,0.4,81,0.00,,,0.04,WUHU216HW,2013-02-09 04:51:00,
2013-02-08 20:56:00,39.1,33.8,29.93,NE,45,0.0,0.4,81,0.00,,,0.04,WUHU216HW,2013-02-09 04:56:00,
2013-02-08 21:00:00,39.1,33.8,29.93,NE,45,0.0,0.2,81,0.00,,,0.04,WUHU216HW,2013-02-09 05:00:00,
2013-02-08 21:05:00,38.9,33.6,29.93,NE,45,0.4,0.4,81,0.00,,,0.04,WUHU216HW,2013-02-09 05:05:00,
2013-02-08 21:10:00,38.7,33.7,29.93,NNE,23,0.4,0.7,82,0.00,,,0.04,WUHU216HW,2013-02-09 05:10:00,
2013-02-08 21:15:00,38.5,33.5,29.93,NNE,23,0.0,0.7,82,0.00,,,0.04,WUHU216HW,2013-02-09 05:15:00,
2013-02-08 21:20:00,38.5,33.5,29.94,NE,45,0.4,0.9,82,0.00,,,0.04,WUHU216HW,2013-02-09 05:20:00,
2013-02-08 21:25:00,38.3,33.3,29.94,North,0,0.0,0.9,82,0.00,,,0.04,WUHU216HW,2013-02-09 05:25:00,
2013-02-08 21:30:00,38.2,33.1,29.93,NNE,23,0.4,0.4,82,0.00,,,0.04,WUHU216HW,2013-02-09 05:30:00,
2013-02-08 21:35:00,38.0,32.9,29.93,NNE,23,0.0,0.4,82,0.00,,,0.04,WUHU216HW,2013-02-09 05:35:00,
2013-02-08 21:40:00,37.8,32.8,29.93,NE,45,0.0,0.4,82,0.00,,,0.04,WUHU216HW,2013-02-09 05:40:00,
2013-02-08 21:46:00,37.8,32.8,29.94,NE,45,0.0,0.2,82,0.00,,,0.04,WUHU216HW,2013-02-09 05:46:00,
2013-02-08 21:51:00,37.6,33.0,29.94,East,90,0.2,0.4,83,0.00,,,0.04,WUHU216HW,2013-02-09 05:51:00,
2013-02-08 21:56:00,37.3,32.6,29.94,East,90,0.0,0.4,83,0.00,,,0.04,WUHU216HW,2013-02-09 05:56:00,
2013-02-08 22:01:00,37.1,32.4,29.93,East,90,0.0,0.4,83,0.00,,,0.04,WUHU216HW,2013-02-09 06:01:00,
2013-02-08 22:06:00,36.9,32.2,29.94,East,90,0.2,0.4,83,0.00,,,0.04,WUHU216HW,2013-02-09 06:06:00,
2013-02-08 22:11:00,36.5,32.1,29.94,East,90,0.2,0.4,84,0.00,,,0.04,WUHU216HW,2013-02-09 06:11:00,
2013-02-08 22:16:00,36.4,32.0,29.94,East,90,0.4,0.4,84,0.00,,,0.04,WUHU216HW,2013-02-09 06:16:00,
2013-02-08 22:21:00,36.2,31.8,29.94,East,90,0.0,0.4,84,0.00,,,0.04,WUHU216HW,2013-02-09 06:21:00,
2013-02-08 22:26:00,36.0,31.6,29.94,East,90,0.0,0.4,84,0.00,,,0.04,WUHU216HW,2013-02-09 06:26:00,
2013-02-08 22:31:00,35.6,31.2,29.94,NE,45,0.4,0.4,84,0.00,,,0.04,WUHU216HW,2013-02-09 06:31:00,
2013-02-08 22:36:00,35.6,31.2,29.94,ENE,68,0.2,0.4,84,0.00,,,0.04,WUHU216HW,2013-02-09 06:36:00,
2013-02-08 22:41:00,35.5,31.1,29.94,East,90,0.7,0.7,84,0.00,,,0.04,WUHU216HW,2013-02-09 06:41:00,
2013-02-08 22:46:00,35.3,31.1,29.94,East,90,0.2,0.9,85,0.00,,,0.04,WUHU216HW,2013-02-09 06:46:00,
2013-02-08 22:51:00,35.3,31.1,29.94,ENE,68,0.0,0.9,85,0.00,,,0.04,WUHU216HW,2013-02-09 06:51:00,
2013-02-08 22:56:00,35.1,30.7,29.94,ENE,68,0.0,0.0,84,0.00,,,0.04,WUHU216HW,2013-02-09 06:56:00,
2013-02-08 23:01:00,34.9,30.5,29.93,NNE,23,0.4,0.4,84,0.00,,,0.04,WUHU216HW,2013-02-09 07:01:00,
2013-02-08 23:06:00,34.9,30.5,29.93,NNE,23,0.2,0.4,84,0.00,,,0.04,WUHU216HW,2013-02-09 07:06:00,
2013-02-08 23:11:00,34.7,30.3,29.94,NNW,338,0.0,0.4,84,0.00,,,0.04,WUHU216HW,2013-02-09 07:11:00,
2013-02-08 23:16:00,34.7,30.3,29.94,North,0,0.2,0.4,84,0.00,,,0.04,WUHU216HW,2013-02-09 07:16:00,
2013-02-08 23:21:00,34.6,30.4,29.94,North,0,0.0,0.2,85,0.00,,,0.04,WUHU216HW,2013-02-09 07:21:00,
2013-02-08 23:26:00,34.4,30.2,29.94,NNE,23,0.0,0.4,85,0.00,,,0.04,WUHU216HW,2013-02-09 07:26:00,
2013-02-08 23:32:00,34.4,30.2,29.94,NNW,338,0.0,0.4,85,0.00,,,0.04,WUHU216HW,2013-02-09 07:32:00,
2013-02-08 23:37:00,34.2,30.1,29.94,North,0,0.0,0.2,85,0.00,,,0.04,WUHU216HW,2013-02-09 07:37:00,
2013-02-08 23:42:00,34.2,30.1,29.94,ENE,68,0.2,0.2,85,0.00,,,0.04,WUHU216HW,2013-02-09 07:42:00,
2013-02-08 23:47:00,34.0,29.9,29.94,NE,45,0.0,0.4,85,0.00,,,0.04,WUHU216HW,2013-02-09 07:47:00,
2013-02-08 23:52:00,33.8,29.7,29.94,NNE,23,0.0,0.4,85,0.00,,,0.04,WUHU216HW,2013-02-09 07:52:00,
2013-02-08 23:57:00,33.8,29.7,29.95,SW,225,0.0,0.4,85,0.00,,,0.04,WUHU216HW,2013-02-09 07:57:00,